Cananeia, Brazil
Current Conditions -  °F | °C
As of 11:00 PM on Friday 24 Oct 2014 (Local Time) from SBCT Reporting Station
Haze Haze  
Wind Chill: 63°   Ceiling: 200
Heat Index: 63°   Visibility: 2.1mi
Dew Point: 61°   Wind: 3mph
Humidity: 94%   Direction: 120°ESE
Pressure: 30.06"   Gusts: NA
Location:  25.01°S, 47.93°W
Report Text: SBCT 250100Z 12003KT 3500 BR BKN002 OVC003 17/16 Q1018
Loading
Personal Weather Stations






























Interactive Weather Map
Tropical Storm Tracking
New forecast layout! Learn more

10-Day Weather Forecast

Advertisements
Track Severe Weather on mobile